Time;durP1;ratioP1;P1;durP2;ratioP2;P2;SDS_P1;SDS_P2;PMS_P1;PMS_P2;Temp;Humidity;BMP_temperature;BMP_pressure;BME280_temperature;BME280_humidity;BME280_pressure;Samples;Min_cycle;Max_cycle;Signal;HPM_P1;HPM_P2
2021/12/23 00:00:16;;;;;;;7.38;6.57;;;3.10;99.90;;;;;;5042657;28;20240;-73
2021/12/23 00:02:44;;;;;;;10.68;7.70;;;3.10;99.90;;;;;;5051336;28;20720;-74
2021/12/23 00:05:13;;;;;;;7.90;7.10;;;3.10;99.90;;;;;;5042361;28;20225;-72
2021/12/23 00:07:41;;;;;;;9.35;8.02;;;3.10;99.90;;;;;;5052522;28;20196;-73
2021/12/23 00:10:10;;;;;;;11.32;7.55;;;3.10;99.90;;;;;;5040625;28;20224;-73
2021/12/23 00:12:40;;;;;;;9.05;6.70;;;3.10;99.90;;;;;;5043665;28;20189;-73
2021/12/23 00:15:17;;;;;;;10.55;7.38;;;3.10;99.90;;;;;;5049073;28;20212;-74
2021/12/23 00:17:58;;;;;;;9.45;7.55;;;3.10;99.90;;;;;;5052451;28;20188;-73
2021/12/23 00:23:30;;;;;;;10.00;7.55;;;3.10;99.90;;;;;;5050539;28;20216;-73
2021/12/23 00:26:01;;;;;;;10.70;7.35;;;3.10;99.90;;;;;;5032495;28;20219;-72
2021/12/23 00:28:31;;;;;;;10.43;7.72;;;3.10;99.90;;;;;;5050013;28;20216;-73
2021/12/23 00:30:59;;;;;;;10.85;7.65;;;3.10;99.90;;;;;;5051295;28;20236;-73
2021/12/23 00:33:28;;;;;;;8.63;7.72;;;3.10;99.90;;;;;;5049852;28;20224;-73
2021/12/23 00:35:57;;;;;;;11.15;7.60;;;3.10;99.90;;;;;;5050668;28;20191;-73
2021/12/23 00:38:30;;;;;;;10.77;7.40;;;3.10;99.90;;;;;;5051166;28;20212;-73
2021/12/23 00:41:02;;;;;;;7.63;6.25;;;3.10;99.90;;;;;;5050418;28;20213;-73
2021/12/23 00:43:31;;;;;;;9.98;7.60;;;3.10;99.90;;;;;;5051758;28;20216;-73
2021/12/23 00:45:59;;;;;;;9.27;7.53;;;3.00;99.90;;;;;;5047751;28;20193;-73
2021/12/23 00:48:28;;;;;;;8.52;6.82;;;3.10;99.90;;;;;;5040904;28;20213;-73
2021/12/23 00:50:56;;;;;;;12.02;9.13;;;3.10;99.90;;;;;;5051660;28;20263;-74
2021/12/23 00:53:26;;;;;;;8.38;7.07;;;3.10;99.90;;;;;;5050156;28;20273;-74
2021/12/23 00:55:55;;;;;;;7.43;6.53;;;3.10;99.90;;;;;;5049451;28;20254;-73
2021/12/23 00:58:25;;;;;;;10.98;7.90;;;3.00;99.90;;;;;;5051370;28;20227;-73
2021/12/23 01:00:54;;;;;;;10.10;7.38;;;3.00;99.90;;;;;;5051765;28;20303;-73
2021/12/23 01:03:22;;;;;;;7.70;6.90;;;3.00;99.90;;;;;;5049980;28;20223;-73
2021/12/23 01:05:51;;;;;;;11.18;8.63;;;3.00;99.90;;;;;;5051365;28;20647;-73
2021/12/23 01:08:19;;;;;;;10.45;7.50;;;3.00;99.90;;;;;;5050246;28;20235;-73
2021/12/23 01:10:51;;;;;;;11.35;7.93;;;3.00;99.90;;;;;;5050936;28;20229;-73
2021/12/23 01:13:20;;;;;;;8.40;7.40;;;3.00;99.90;;;;;;5050698;28;20274;-73
2021/12/23 01:16:02;;;;;;;8.70;7.65;;;3.00;99.90;;;;;;5035078;28;20201;-73
2021/12/23 01:18:33;;;;;;;9.57;7.00;;;3.00;99.90;;;;;;5050075;28;20309;-73
2021/12/23 01:21:14;;;;;;;10.00;8.00;;;3.00;99.90;;;;;;5050297;28;20274;-74
2021/12/23 01:23:46;;;;;;;10.13;7.43;;;3.00;99.90;;;;;;5049407;28;20228;-73
2021/12/23 01:26:19;;;;;;;10.23;8.20;;;3.00;99.90;;;;;;5051082;28;20204;-73
2021/12/23 01:28:49;;;;;;;10.32;7.72;;;3.00;99.90;;;;;;5050904;28;20239;-73
2021/12/23 01:31:19;;;;;;;10.68;7.18;;;3.00;99.90;;;;;;5048489;28;20624;-73
2021/12/23 01:33:47;;;;;;;10.52;7.25;;;3.00;99.90;;;;;;5050445;28;20633;-73
2021/12/23 01:36:15;;;;;;;10.20;7.88;;;3.00;99.90;;;;;;5051515;28;20203;-73
2021/12/23 01:38:44;;;;;;;10.30;7.10;;;3.00;99.90;;;;;;5041291;28;20686;-73
2021/12/23 01:41:12;;;;;;;10.13;8.38;;;3.00;99.90;;;;;;5051596;28;20266;-74
2021/12/23 01:43:40;;;;;;;12.73;8.50;;;3.00;99.90;;;;;;5050326;28;20224;-73
2021/12/23 01:46:14;;;;;;;11.27;8.55;;;3.00;99.90;;;;;;5050980;28;20196;-73
2021/12/23 01:48:44;;;;;;;10.73;8.40;;;3.00;99.90;;;;;;5036084;28;20303;-73
2021/12/23 01:51:13;;;;;;;7.88;7.07;;;3.00;99.90;;;;;;5049607;28;20213;-74
2021/12/23 01:53:42;;;;;;;10.00;7.25;;;3.00;99.90;;;;;;5047887;28;20212;-72
2021/12/23 01:56:10;;;;;;;8.30;6.85;;;3.00;99.90;;;;;;5035740;28;20242;-73
2021/12/23 01:58:40;;;;;;;10.18;7.55;;;3.00;99.90;;;;;;5049295;28;20212;-74
2021/12/23 02:01:09;;;;;;;9.88;8.15;;;3.00;99.90;;;;;;5036172;28;20216;-73
2021/12/23 02:03:38;;;;;;;9.77;7.30;;;3.00;99.90;;;;;;5050337;28;20236;-73
2021/12/23 02:06:09;;;;;;;9.25;7.70;;;3.00;99.90;;;;;;5050533;28;20228;-73
2021/12/23 02:08:38;;;;;;;9.88;7.28;;;3.00;99.90;;;;;;5048986;28;20690;-72
2021/12/23 02:11:10;;;;;;;10.77;7.70;;;2.90;99.90;;;;;;5050565;28;20250;-73
2021/12/23 02:13:38;;;;;;;10.15;7.30;;;3.00;99.90;;;;;;5049590;28;20221;-73
2021/12/23 02:16:07;;;;;;;9.80;7.70;;;3.00;99.90;;;;;;5042641;28;20204;-74
2021/12/23 02:18:36;;;;;;;9.95;8.70;;;2.90;99.90;;;;;;5064610;22;20308;-58
2021/12/23 02:21:08;;;;;;;9.20;7.05;;;2.90;99.90;;;;;;4996203;28;20754;-61
2021/12/23 02:23:36;;;;;;;11.73;8.35;;;2.90;99.90;;;;;;5006205;28;20709;-60
2021/12/23 02:26:09;;;;;;;10.60;8.23;;;2.90;99.90;;;;;;5026372;28;20221;-59
2021/12/23 02:28:40;;;;;;;11.35;8.40;;;2.90;99.90;;;;;;5000981;28;20705;-59
2021/12/23 02:31:08;;;;;;;9.25;6.90;;;2.90;99.90;;;;;;4991317;28;20249;-58
2021/12/23 02:33:37;;;;;;;10.90;7.90;;;2.90;99.90;;;;;;4990965;28;20222;-60
2021/12/23 02:36:08;;;;;;;8.93;7.55;;;3.00;99.90;;;;;;4992938;28;20233;-60
2021/12/23 02:38:36;;;;;;;10.63;7.82;;;2.90;99.90;;;;;;4987803;28;20732;-60
2021/12/23 02:41:04;;;;;;;8.55;6.95;;;3.00;99.90;;;;;;4994780;28;20191;-61
2021/12/23 02:43:36;;;;;;;9.73;7.38;;;3.00;99.90;;;;;;4994282;28;20226;-61
2021/12/23 02:46:06;;;;;;;11.88;8.60;;;2.90;99.90;;;;;;4993640;28;20199;-60
2021/12/23 02:48:36;;;;;;;10.60;8.25;;;2.90;99.90;;;;;;4994127;28;20218;-59
2021/12/23 02:51:08;;;;;;;10.68;8.00;;;2.90;99.90;;;;;;4994716;28;20191;-62
2021/12/23 02:53:38;;;;;;;11.23;7.00;;;2.90;99.90;;;;;;4990086;28;20219;-62
2021/12/23 02:56:09;;;;;;;9.30;7.53;;;2.90;99.90;;;;;;4978501;28;20203;-60
2021/12/23 02:58:38;;;;;;;8.43;7.18;;;2.90;99.90;;;;;;4993942;28;20308;-61
2021/12/23 03:01:09;;;;;;;8.93;7.78;;;2.90;99.90;;;;;;4994177;28;20191;-62
2021/12/23 03:03:38;;;;;;;11.30;7.35;;;2.90;99.90;;;;;;5005860;28;20238;-61
2021/12/23 03:06:09;;;;;;;9.93;7.05;;;2.90;99.90;;;;;;4975227;28;20274;-60
2021/12/23 03:08:39;;;;;;;9.50;7.38;;;2.90;99.90;;;;;;4987135;28;20239;-60
2021/12/23 03:11:09;;;;;;;10.75;6.97;;;2.90;99.90;;;;;;4994107;28;20716;-60
2021/12/23 03:13:39;;;;;;;9.07;7.32;;;2.90;99.90;;;;;;4993026;28;20309;-61
2021/12/23 03:16:08;;;;;;;9.55;7.32;;;2.90;99.90;;;;;;4993294;28;20210;-60
2021/12/23 03:18:37;;;;;;;8.88;7.78;;;2.90;99.90;;;;;;4993682;28;20231;-60
2021/12/23 03:21:10;;;;;;;9.60;6.80;;;2.90;99.90;;;;;;4994121;28;20650;-61
2021/12/23 03:23:38;;;;;;;8.32;6.85;;;2.90;99.90;;;;;;4988955;28;20223;-61
2021/12/23 03:26:07;;;;;;;10.50;7.00;;;2.90;99.90;;;;;;4989304;28;20717;-60
2021/12/23 03:28:37;;;;;;;8.20;6.43;;;2.90;99.90;;;;;;4993537;28;20230;-59
2021/12/23 03:31:06;;;;;;;8.80;6.95;;;2.90;99.90;;;;;;4992612;28;20713;-59
2021/12/23 03:33:37;;;;;;;7.32;6.13;;;2.90;99.90;;;;;;4992709;28;20222;-60
2021/12/23 03:36:05;;;;;;;9.40;7.00;;;2.90;99.90;;;;;;4992559;28;20574;-59
2021/12/23 03:38:35;;;;;;;8.15;7.32;;;2.90;99.90;;;;;;4992831;28;20222;-59
2021/12/23 03:41:04;;;;;;;7.65;6.10;;;2.90;99.90;;;;;;4994118;28;20194;-60
2021/12/23 03:43:33;;;;;;;9.68;6.60;;;2.90;99.90;;;;;;4993401;28;20226;-61
2021/12/23 03:46:02;;;;;;;7.55;6.75;;;2.90;99.90;;;;;;4992816;28;20744;-60
2021/12/23 03:48:30;;;;;;;7.68;6.15;;;2.90;99.90;;;;;;4993028;28;20237;-60
2021/12/23 03:50:58;;;;;;;8.68;6.65;;;2.90;99.90;;;;;;4993748;28;20193;-60
2021/12/23 03:53:26;;;;;;;9.70;7.00;;;2.90;99.90;;;;;;4992177;28;20223;-61
2021/12/23 03:55:59;;;;;;;8.95;6.97;;;2.90;99.90;;;;;;4993346;28;20715;-57
2021/12/23 03:58:27;;;;;;;7.95;7.07;;;2.90;99.90;;;;;;4992083;28;20210;-60
2021/12/23 04:00:55;;;;;;;9.52;6.90;;;2.90;99.90;;;;;;4978594;28;20675;-60
2021/12/23 04:03:24;;;;;;;8.35;7.15;;;2.90;99.90;;;;;;4988544;28;20226;-61
2021/12/23 04:05:52;;;;;;;7.25;6.22;;;2.90;99.90;;;;;;4981198;28;20251;-60
2021/12/23 04:08:20;;;;;;;9.52;6.53;;;2.90;99.90;;;;;;4976536;28;20599;-59
2021/12/23 04:10:48;;;;;;;8.95;6.60;;;2.90;99.90;;;;;;4993825;28;20786;-61
2021/12/23 04:13:18;;;;;;;8.77;6.85;;;2.90;99.90;;;;;;4992408;28;20253;-60
2021/12/23 04:15:46;;;;;;;7.28;6.50;;;2.90;99.90;;;;;;4990032;28;20290;-61
2021/12/23 04:18:17;;;;;;;7.82;5.88;;;2.90;99.90;;;;;;4992526;28;20265;-60
2021/12/23 04:20:53;;;;;;;9.10;6.07;;;2.90;99.90;;;;;;4992933;28;20195;-61
2021/12/23 04:23:22;;;;;;;7.13;5.40;;;2.90;99.90;;;;;;4992448;28;20221;-62
2021/12/23 04:25:56;;;;;;;8.75;6.32;;;2.90;99.90;;;;;;4988956;28;20190;-60
2021/12/23 04:28:44;;;;;;;8.45;6.35;;;2.90;99.90;;;;;;4991763;28;20223;-60
2021/12/23 04:31:16;;;;;;;8.02;6.57;;;2.90;99.90;;;;;;4992291;28;20198;-62
2021/12/23 04:33:45;;;;;;;8.73;6.72;;;2.90;99.90;;;;;;4991258;28;20626;-60
2021/12/23 04:36:14;;;;;;;9.63;6.30;;;2.90;99.90;;;;;;4992681;28;20237;-59
2021/12/23 04:38:44;;;;;;;7.78;6.63;;;2.90;99.90;;;;;;4981272;28;20227;-59
2021/12/23 04:41:13;;;;;;;7.07;6.15;;;2.90;99.90;;;;;;4988127;28;20199;-61
2021/12/23 04:43:43;;;;;;;7.10;5.72;;;2.90;99.90;;;;;;4992245;28;20222;-60
2021/12/23 04:46:11;;;;;;;8.20;6.35;;;2.80;99.90;;;;;;4975258;28;20286;-60
2021/12/23 04:48:40;;;;;;;8.18;6.25;;;2.90;99.90;;;;;;4990946;28;20645;-60
2021/12/23 04:51:08;;;;;;;6.53;5.82;;;2.80;99.90;;;;;;4992713;28;20273;-60
2021/12/23 04:53:36;;;;;;;8.93;7.00;;;2.80;99.90;;;;;;4977734;28;20261;-61
2021/12/23 04:56:05;;;;;;;8.02;6.43;;;2.90;99.90;;;;;;4992347;28;20198;-60
2021/12/23 04:58:34;;;;;;;6.60;5.88;;;2.90;99.90;;;;;;4991691;28;20226;-60
2021/12/23 05:01:06;;;;;;;9.07;5.88;;;2.90;99.90;;;;;;4987648;28;20206;-60
2021/12/23 05:03:35;;;;;;;6.97;6.28;;;2.90;99.90;;;;;;4986138;28;20223;-61
2021/12/23 05:06:04;;;;;;;6.60;6.00;;;2.90;99.90;;;;;;4972691;28;20210;-61
2021/12/23 05:08:32;;;;;;;8.30;5.93;;;2.90;99.90;;;;;;4971860;28;20265;-57
2021/12/23 05:11:00;;;;;;;7.45;5.75;;;2.80;99.90;;;;;;4973160;28;20634;-60
2021/12/23 05:13:28;;;;;;;7.30;5.63;;;2.90;99.90;;;;;;4971067;28;20226;-61
2021/12/23 05:15:57;;;;;;;8.00;6.43;;;2.90;99.90;;;;;;4972119;28;20233;-58
2021/12/23 05:18:26;;;;;;;7.63;6.20;;;2.90;99.90;;;;;;4971986;28;20233;-59
2021/12/23 05:20:55;;;;;;;8.30;6.20;;;2.80;99.90;;;;;;4973569;28;20265;-61
2021/12/23 05:23:23;;;;;;;5.75;5.25;;;2.80;99.90;;;;;;4964967;28;20717;-61
2021/12/23 05:25:51;;;;;;;7.90;6.00;;;2.80;99.90;;;;;;4968232;28;20658;-60
2021/12/23 05:28:20;;;;;;;8.43;6.05;;;2.90;99.90;;;;;;4972164;28;20223;-58
2021/12/23 05:30:48;;;;;;;8.25;5.80;;;2.80;99.90;;;;;;4972424;28;20203;-59
2021/12/23 05:33:16;;;;;;;8.77;5.65;;;2.80;99.90;;;;;;4971948;28;20227;-61
2021/12/23 05:35:45;;;;;;;6.90;5.55;;;2.80;99.90;;;;;;4972352;28;20200;-59
2021/12/23 05:38:13;;;;;;;7.50;6.70;;;2.80;99.90;;;;;;4973746;28;21221;-60
2021/12/23 05:40:42;;;;;;;6.95;6.18;;;2.80;99.90;;;;;;4992208;28;20248;-60
2021/12/23 05:43:10;;;;;;;7.60;6.43;;;2.80;99.90;;;;;;4991495;28;20187;-61
2021/12/23 05:45:38;;;;;;;7.05;6.15;;;2.80;99.90;;;;;;4991341;28;20278;-60
2021/12/23 05:48:09;;;;;;;8.13;6.70;;;2.80;99.90;;;;;;4990819;28;20230;-60
2021/12/23 05:50:37;;;;;;;7.82;6.13;;;2.80;99.90;;;;;;4991970;28;20230;-60
2021/12/23 05:53:07;;;;;;;7.25;6.07;;;2.80;99.90;;;;;;4990505;28;20297;-60
2021/12/23 05:55:35;;;;;;;8.02;6.18;;;2.80;99.90;;;;;;4988136;28;20234;-60
2021/12/23 05:58:03;;;;;;;5.55;4.72;;;2.80;99.90;;;;;;4992031;28;20798;-60
2021/12/23 06:00:33;;;;;;;6.15;5.47;;;2.80;99.90;;;;;;4979360;28;20207;-58
2021/12/23 06:03:02;;;;;;;6.78;5.72;;;2.80;99.90;;;;;;4971384;28;20188;-60
2021/12/23 06:05:31;;;;;;;6.88;5.45;;;2.80;99.90;;;;;;4989358;28;20202;-60
2021/12/23 06:07:59;;;;;;;6.30;4.95;;;2.80;99.90;;;;;;4990987;28;20214;-60
2021/12/23 06:10:29;;;;;;;8.60;6.10;;;2.80;99.90;;;;;;4992249;28;20191;-60
2021/12/23 06:12:57;;;;;;;6.88;5.88;;;2.80;99.90;;;;;;4994875;28;20194;-61
2021/12/23 06:15:25;;;;;;;7.85;6.35;;;2.80;99.90;;;;;;4994027;28;20226;-61
2021/12/23 06:17:53;;;;;;;7.50;6.43;;;2.80;99.90;;;;;;4995292;28;20242;-61
2021/12/23 06:20:21;;;;;;;7.13;5.68;;;2.80;99.90;;;;;;4975284;28;20691;-60
2021/12/23 06:22:49;;;;;;;6.57;5.60;;;2.80;99.90;;;;;;4973139;28;20206;-63
2021/12/23 06:25:18;;;;;;;7.60;5.63;;;2.80;99.90;;;;;;4982424;28;20214;-61
2021/12/23 06:27:48;;;;;;;8.75;5.82;;;2.80;99.90;;;;;;4989545;28;20589;-59
2021/12/23 06:30:19;;;;;;;6.55;5.70;;;2.80;99.90;;;;;;4974592;28;20270;-59
2021/12/23 06:32:53;;;;;;;7.78;5.72;;;2.80;99.90;;;;;;4981876;28;20558;-60
2021/12/23 06:35:24;;;;;;;7.35;5.40;;;2.70;99.90;;;;;;4985895;28;20207;-61
2021/12/23 06:37:54;;;;;;;8.60;5.72;;;2.80;99.90;;;;;;4975122;28;20682;-59
2021/12/23 06:40:25;;;;;;;7.82;5.15;;;2.80;99.90;;;;;;4994335;28;20210;-58
2021/12/23 06:42:55;;;;;;;7.85;6.03;;;2.80;99.90;;;;;;4995435;28;20195;-60
2021/12/23 06:45:23;;;;;;;9.48;6.30;;;2.70;99.90;;;;;;4994054;28;20253;-59
2021/12/23 06:47:51;;;;;;;7.60;6.63;;;2.80;99.90;;;;;;4994168;28;20257;-59
2021/12/23 06:50:21;;;;;;;7.65;5.85;;;2.80;99.90;;;;;;4994778;28;20223;-61
2021/12/23 06:52:49;;;;;;;8.45;5.47;;;2.80;99.90;;;;;;4994417;28;20680;-59
2021/12/23 06:55:19;;;;;;;8.02;6.15;;;2.70;99.90;;;;;;4992298;28;20245;-59
2021/12/23 06:57:53;;;;;;;6.38;5.70;;;2.80;99.90;;;;;;4994643;28;20234;-61
2021/12/23 07:00:26;;;;;;;10.40;6.80;;;2.80;99.90;;;;;;4983605;28;20488;-59
2021/12/23 07:02:56;;;;;;;7.32;5.60;;;2.80;99.90;;;;;;4989452;28;20190;-62
2021/12/23 07:05:24;;;;;;;6.75;6.15;;;2.70;99.90;;;;;;4993108;28;20195;-60
2021/12/23 07:07:56;;;;;;;10.05;6.80;;;2.80;99.90;;;;;;4994712;28;20206;-60
2021/12/23 07:10:30;;;;;;;8.40;5.65;;;2.80;99.90;;;;;;4964502;28;20235;-59
2021/12/23 07:12:59;;;;;;;8.35;5.65;;;2.80;99.90;;;;;;4975515;28;20197;-60
2021/12/23 07:15:29;;;;;;;7.75;5.63;;;2.80;99.90;;;;;;4982793;28;20218;-61
2021/12/23 07:17:59;;;;;;;7.57;5.78;;;2.80;99.90;;;;;;4982158;28;20211;-59
2021/12/23 07:20:29;;;;;;;7.25;5.18;;;2.80;99.90;;;;;;4994681;28;20195;-62
2021/12/23 07:22:57;;;;;;;7.57;5.50;;;2.80;99.90;;;;;;4993492;28;20195;-62
2021/12/23 07:25:27;;;;;;;8.88;6.38;;;2.80;99.90;;;;;;4979864;28;20266;-60
2021/12/23 07:28:25;;;;;;;8.48;6.38;;;2.80;99.90;;;;;;4990276;28;20216;-58
2021/12/23 07:31:00;;;;;;;8.18;5.68;;;2.80;99.90;;;;;;4978078;28;20189;-60
2021/12/23 07:33:29;;;;;;;6.65;5.25;;;2.70;99.90;;;;;;4992355;28;20256;-59
2021/12/23 07:35:57;;;;;;;7.32;6.15;;;2.80;99.90;;;;;;4995076;28;20187;-60
2021/12/23 07:38:30;;;;;;;6.82;5.07;;;2.70;99.90;;;;;;4994748;28;20399;-58
2021/12/23 07:40:58;;;;;;;6.32;5.25;;;2.80;99.90;;;;;;4977976;28;20246;-60
2021/12/23 07:44:19;;;;;;;6.68;5.30;;;2.70;99.90;;;;;;4987873;28;20636;-56
2021/12/23 07:46:51;;;;;;;8.95;6.40;;;2.70;99.90;;;;;;4988725;28;20195;-60
2021/12/23 07:49:34;;;;;;;7.20;5.43;;;2.70;99.90;;;;;;4975900;28;20226;-58
2021/12/23 07:52:06;;;;;;;7.57;5.70;;;2.70;99.90;;;;;;4974781;28;20184;-60
2021/12/23 07:54:34;;;;;;;6.25;5.20;;;2.80;99.90;;;;;;4973838;28;20222;-59
2021/12/23 07:57:27;;;;;;;7.03;5.70;;;2.70;99.90;;;;;;4992189;28;20585;-58
2021/12/23 08:00:00;;;;;;;7.82;5.68;;;2.80;99.90;;;;;;4993051;28;20222;-58
2021/12/23 08:03:08;;;;;;;7.18;5.45;;;2.70;99.90;;;;;;4980921;28;20217;-59
2021/12/23 08:05:36;;;;;;;6.78;5.10;;;2.70;99.90;;;;;;4993818;28;20621;-59
2021/12/23 08:08:06;;;;;;;7.32;5.80;;;2.70;99.90;;;;;;4986547;28;20273;-60
2021/12/23 08:10:34;;;;;;;6.75;5.30;;;2.80;99.90;;;;;;5005754;28;20285;-60
2021/12/23 08:13:57;;;;;;;6.22;5.10;;;2.70;99.90;;;;;;4994890;28;20589;-60
2021/12/23 08:16:34;;;;;;;7.30;5.20;;;2.70;99.90;;;;;;4921868;29;20315;-58
2021/12/23 08:19:05;;;;;;;8.63;5.70;;;2.70;99.90;;;;;;4985221;28;20313;-59
2021/12/23 08:21:34;;;;;;;6.75;5.32;;;2.70;99.90;;;;;;4993599;28;20190;-59
2021/12/23 08:24:02;;;;;;;7.47;5.60;;;2.70;99.90;;;;;;4983220;28;20214;-61
2021/12/23 08:26:39;;;;;;;7.53;5.22;;;2.70;99.90;;;;;;4991993;28;20186;-60
2021/12/23 08:29:32;;;;;;;5.68;5.10;;;2.70;99.90;;;;;;4992610;28;20238;-59
2021/12/23 08:36:00;;;;;;;6.78;4.50;;;2.70;99.90;;;;;;4991391;28;20264;-61
2021/12/23 08:48:32;;;;;;;6.70;5.65;;;2.70;99.90;;;;;;3991542;22;20690;-67
2021/12/23 08:51:02;;;;;;;6.53;5.28;;;2.70;99.90;;;;;;5032189;28;20197;-67
2021/12/23 08:53:32;;;;;;;6.90;5.47;;;2.70;99.90;;;;;;5042356;28;20270;-69
2021/12/23 08:56:00;;;;;;;6.38;5.45;;;2.70;99.90;;;;;;5049635;28;20278;-67
2021/12/23 08:58:28;;;;;;;7.10;5.40;;;2.70;99.90;;;;;;5044517;28;20220;-68
2021/12/23 09:00:57;;;;;;;8.55;5.47;;;2.70;99.90;;;;;;5050955;28;20192;-67
2021/12/23 09:03:26;;;;;;;7.75;5.18;;;2.70;99.90;;;;;;5050588;28;20270;-70
2021/12/23 09:05:54;;;;;;;6.45;5.03;;;2.70;99.90;;;;;;5051810;28;20227;-69
2021/12/23 09:08:26;;;;;;;6.78;4.63;;;2.70;99.90;;;;;;5061258;28;20220;-67
2021/12/23 09:10:55;;;;;;;8.65;5.72;;;2.70;99.90;;;;;;5051350;28;20196;-67
2021/12/23 09:13:29;;;;;;;9.85;6.10;;;2.70;99.90;;;;;;5051436;28;20227;-70
2021/12/23 09:15:58;;;;;;;6.00;4.70;;;2.70;99.90;;;;;;5035815;28;20575;-70
2021/12/23 09:18:26;;;;;;;7.13;5.82;;;2.70;99.90;;;;;;5045007;28;20303;-68
2021/12/23 09:20:56;;;;;;;6.57;4.93;;;2.70;99.90;;;;;;5051005;28;20184;-67
2021/12/23 09:23:26;;;;;;;7.95;6.10;;;2.70;99.90;;;;;;5045201;28;20232;-67
2021/12/23 09:25:54;;;;;;;7.60;5.38;;;2.70;99.90;;;;;;5036618;28;20197;-70
2021/12/23 09:28:32;;;;;;;7.78;6.00;;;2.70;99.90;;;;;;5050803;28;20216;-70
2021/12/23 09:33:49;;;;;;;6.40;4.63;;;2.70;99.90;;;;;;5033673;28;20227;-68
2021/12/23 09:36:17;;;;;;;5.95;5.25;;;2.70;99.90;;;;;;5051420;28;20213;-68
2021/12/23 09:38:46;;;;;;;8.32;6.43;;;2.70;99.90;;;;;;5050743;28;20267;-67
2021/12/23 09:41:17;;;;;;;7.93;4.82;;;2.70;99.90;;;;;;5031734;28;20189;-68
2021/12/23 09:43:46;;;;;;;6.05;4.80;;;2.70;99.90;;;;;;5041454;28;20225;-67
2021/12/23 09:46:17;;;;;;;7.88;5.60;;;2.70;99.90;;;;;;5054214;28;20622;-69
2021/12/23 09:48:47;;;;;;;6.72;5.78;;;2.70;99.90;;;;;;5051391;28;21876;-68
2021/12/23 09:51:18;;;;;;;6.70;5.20;;;2.70;99.90;;;;;;5052356;28;20619;-67
2021/12/23 09:53:56;;;;;;;8.30;5.75;;;2.70;99.90;;;;;;5045275;28;20262;-67
2021/12/23 09:56:25;;;;;;;7.82;6.00;;;2.70;99.90;;;;;;5052094;28;20211;-68
2021/12/23 09:58:56;;;;;;;6.85;5.13;;;2.70;99.90;;;;;;5046009;28;20275;-68
2021/12/23 10:01:25;;;;;;;5.63;4.95;;;2.70;99.90;;;;;;5046693;28;20197;-68
2021/12/23 10:03:54;;;;;;;6.70;4.88;;;2.70;99.90;;;;;;5054678;28;20303;-68
2021/12/23 10:06:24;;;;;;;5.82;4.55;;;2.70;99.90;;;;;;5042686;28;20543;-69
2021/12/23 10:08:54;;;;;;;8.25;5.57;;;2.70;99.90;;;;;;5051462;28;20225;-67
2021/12/23 10:11:29;;;;;;;6.22;5.28;;;2.70;99.90;;;;;;5042843;28;20204;-67
2021/12/23 10:31:11;;;;;;;6.50;4.78;;;2.70;99.90;;;;;;5049193;28;20196;-69
2021/12/23 10:37:04;;;;;;;5.88;4.53;;;2.70;99.90;;;;;;5052530;28;20679;-68
2021/12/23 10:39:35;;;;;;;5.47;4.45;;;2.70;99.90;;;;;;4992399;28;20567;-70
2021/12/23 10:42:14;;;;;;;6.95;4.93;;;2.70;99.90;;;;;;5036901;28;20558;-70
2021/12/23 10:44:49;;;;;;;7.15;4.20;;;2.70;99.90;;;;;;5047787;28;20216;-69
2021/12/23 10:47:36;;;;;;;6.20;4.88;;;2.70;99.90;;;;;;5034354;28;20196;-69
2021/12/23 10:50:16;;;;;;;5.72;4.25;;;2.70;99.90;;;;;;5053604;28;20286;-68
2021/12/23 10:52:52;;;;;;;7.82;5.40;;;2.70;99.90;;;;;;5053385;28;20693;-70
2021/12/23 10:58:15;;;;;;;6.28;4.90;;;2.70;99.90;;;;;;5037698;28;20197;-69
2021/12/23 11:00:46;;;;;;;6.75;5.38;;;2.70;99.90;;;;;;5045365;28;20207;-69
2021/12/23 11:03:17;;;;;;;7.00;5.20;;;2.70;99.90;;;;;;5032217;28;20763;-70
2021/12/23 11:05:57;;;;;;;8.10;5.30;;;2.70;99.90;;;;;;5040993;28;20180;-69
2021/12/23 11:08:32;;;;;;;7.80;4.43;;;2.70;99.90;;;;;;5051856;28;20290;-68
2021/12/23 11:11:35;;;;;;;6.07;4.40;;;2.70;99.90;;;;;;5053835;28;20185;-68
2021/12/23 11:29:02;;;;;;;4.82;3.97;;;2.70;99.90;;;;;;5052933;28;20224;-69
2021/12/23 11:37:39;;;;;;;6.53;4.32;;;2.70;99.90;;;;;;5051680;28;20231;-69
2021/12/23 11:40:22;;;;;;;5.97;4.25;;;2.70;99.90;;;;;;5052968;28;20705;-68
2021/12/23 11:43:13;;;;;;;6.00;5.10;;;2.70;99.90;;;;;;5038474;28;20263;-68
2021/12/23 11:45:45;;;;;;;4.32;3.80;;;2.70;99.90;;;;;;5042331;28;20209;-70
2021/12/23 11:48:15;;;;;;;5.85;3.80;;;2.70;99.90;;;;;;5053089;28;20200;-70
2021/12/23 11:50:54;;;;;;;4.88;4.07;;;2.70;99.90;;;;;;5053048;28;20189;-67
2021/12/23 11:53:24;;;;;;;6.47;4.55;;;2.70;99.90;;;;;;5040924;28;20278;-67
2021/12/23 11:55:54;;;;;;;5.40;4.47;;;2.70;99.90;;;;;;5041727;28;20246;-68
2021/12/23 11:58:24;;;;;;;5.00;4.30;;;2.70;99.90;;;;;;5052168;28;20571;-70
2021/12/23 12:01:07;;;;;;;4.53;3.83;;;2.70;99.90;;;;;;5044410;28;21429;-67
2021/12/23 12:03:51;;;;;;;6.20;4.43;;;2.70;99.90;;;;;;5047819;28;20579;-67
2021/12/23 12:06:23;;;;;;;7.45;4.57;;;2.70;99.90;;;;;;5051036;28;20565;-69
2021/12/23 12:08:55;;;;;;;4.85;3.70;;;2.70;99.90;;;;;;5032310;28;20710;-69
2021/12/23 12:11:25;;;;;;;4.97;3.80;;;2.70;99.90;;;;;;5049939;28;20650;-67
2021/12/23 12:13:56;;;;;;;4.18;3.63;;;2.70;99.90;;;;;;5050975;28;20232;-66
2021/12/23 12:16:33;;;;;;;5.10;3.33;;;2.70;99.90;;;;;;5046862;28;20215;-68
2021/12/23 12:19:06;;;;;;;5.60;4.45;;;2.70;99.90;;;;;;5052164;28;20227;-69
2021/12/23 12:21:37;;;;;;;5.55;3.70;;;2.80;99.90;;;;;;5051990;28;20207;-67
2021/12/23 12:24:10;;;;;;;5.22;3.97;;;2.70;99.90;;;;;;5051769;28;20648;-66
2021/12/23 12:26:53;;;;;;;7.22;5.07;;;2.70;99.90;;;;;;5052414;28;20184;-67
2021/12/23 12:29:26;;;;;;;4.72;4.20;;;2.80;99.90;;;;;;5049223;28;20269;-66
2021/12/23 12:31:54;;;;;;;6.15;4.80;;;2.70;99.90;;;;;;5035225;28;20192;-67
2021/12/23 12:34:31;;;;;;;5.20;4.32;;;2.70;99.90;;;;;;5052813;28;20232;-67
2021/12/23 12:37:00;;;;;;;4.60;4.00;;;2.70;99.90;;;;;;5053358;28;20211;-69
2021/12/23 12:39:35;;;;;;;6.50;4.55;;;2.70;99.90;;;;;;5057595;28;20568;-67
2021/12/23 12:42:08;;;;;;;6.95;4.55;;;2.70;99.90;;;;;;5048233;28;20642;-67
2021/12/23 12:44:51;;;;;;;6.85;4.45;;;2.70;99.90;;;;;;5052475;28;20216;-66
2021/12/23 12:47:26;;;;;;;5.30;3.90;;;2.80;99.90;;;;;;5059845;28;20193;-67
2021/12/23 12:50:10;;;;;;;4.68;4.22;;;2.70;99.90;;;;;;5052183;28;20720;-68
2021/12/23 12:52:40;;;;;;;5.13;4.15;;;2.80;99.90;;;;;;5043216;28;20274;-66
2021/12/23 12:55:12;;;;;;;4.15;3.53;;;2.80;99.90;;;;;;5050884;28;20598;-68
2021/12/23 12:57:43;;;;;;;4.63;4.13;;;2.70;99.90;;;;;;5052057;28;20227;-69
2021/12/23 13:00:21;;;;;;;7.00;3.92;;;2.70;99.90;;;;;;5046471;28;20270;-66
2021/12/23 13:02:52;;;;;;;10.05;7.35;;;2.80;99.90;;;;;;5049779;28;20956;-67
2021/12/23 13:05:32;;;;;;;7.95;5.78;;;2.80;99.90;;;;;;5050433;28;20220;-68
2021/12/23 13:08:24;;;;;;;7.65;6.70;;;2.90;99.90;;;;;;5026423;28;20916;-68
2021/12/23 13:11:21;;;;;;;9.02;6.38;;;2.90;99.90;;;;;;5035781;28;20235;-66
2021/12/23 13:14:00;;;;;;;7.60;5.60;;;2.90;99.90;;;;;;5045914;28;20701;-67
2021/12/23 13:17:00;;;;;;;8.98;5.40;;;2.90;99.90;;;;;;5048743;28;20212;-68
2021/12/23 13:19:31;;;;;;;8.48;5.40;;;2.90;99.90;;;;;;5050860;28;20678;-67
2021/12/23 13:22:04;;;;;;;6.72;5.55;;;2.90;99.90;;;;;;5065796;28;20191;-67
2021/12/23 13:24:37;;;;;;;8.95;5.63;;;2.80;99.90;;;;;;5049783;28;20302;-71
2021/12/23 13:27:05;;;;;;;5.82;4.63;;;2.80;99.90;;;;;;5050685;28;20267;-72
2021/12/23 13:29:35;;;;;;;6.75;4.95;;;2.80;99.90;;;;;;5049336;28;20258;-72
2021/12/23 13:32:04;;;;;;;7.72;4.90;;;2.80;99.90;;;;;;5050193;28;20189;-72
2021/12/23 13:34:34;;;;;;;5.60;4.97;;;2.80;99.90;;;;;;5047704;28;20220;-72
2021/12/23 13:37:07;;;;;;;4.80;4.07;;;2.80;99.90;;;;;;5051608;28;20200;-72
2021/12/23 13:39:38;;;;;;;7.03;4.57;;;2.80;99.90;;;;;;5049950;28;20641;-73
2021/12/23 13:42:09;;;;;;;7.95;5.30;;;2.80;99.90;;;;;;5052640;28;20283;-72
2021/12/23 13:44:39;;;;;;;6.63;4.60;;;2.80;99.90;;;;;;5048300;28;20230;-72
2021/12/23 13:47:08;;;;;;;5.60;3.80;;;2.80;99.90;;;;;;5050665;28;20191;-72
2021/12/23 13:49:39;;;;;;;7.80;5.45;;;2.80;99.90;;;;;;5050868;28;20224;-73
2021/12/23 13:52:12;;;;;;;7.57;4.97;;;2.80;99.90;;;;;;5051998;28;20185;-72
2021/12/23 13:54:41;;;;;;;6.40;4.65;;;2.80;99.90;;;;;;5049720;28;20228;-72
2021/12/23 13:57:12;;;;;;;11.10;7.20;;;2.80;99.90;;;;;;5050586;28;20207;-73
2021/12/23 13:59:40;;;;;;;7.10;4.78;;;2.80;99.90;;;;;;5063259;28;20246;-72
2021/12/23 14:02:10;;;;;;;7.35;4.85;;;2.80;99.90;;;;;;5048719;28;20188;-71
2021/12/23 14:04:44;;;;;;;5.07;3.95;;;2.80;99.90;;;;;;5050528;28;20231;-71
2021/12/23 14:07:21;;;;;;;6.75;4.25;;;2.80;99.90;;;;;;5049189;28;20212;-73
2021/12/23 14:09:52;;;;;;;5.97;4.78;;;2.80;99.90;;;;;;5031433;28;20275;-72
2021/12/23 14:12:22;;;;;;;8.13;4.80;;;2.80;99.90;;;;;;5047345;28;20246;-72
2021/12/23 14:14:54;;;;;;;5.70;4.30;;;2.80;99.90;;;;;;5050588;28;20217;-72
2021/12/23 14:17:44;;;;;;;7.68;5.10;;;2.80;99.90;;;;;;5051611;28;20251;-74
2021/12/23 14:23:15;;;;;;;5.70;4.45;;;2.80;99.90;;;;;;5050526;28;20213;-71
2021/12/23 14:25:50;;;;;;;9.15;5.50;;;2.80;99.90;;;;;;5030730;28;20292;-72